Time;durP1;ratioP1;P1;durP2;ratioP2;P2;SDS_P1;SDS_P2;PMS_P1;PMS_P2;Temp;Humidity;BMP_temperature;BMP_pressure;BME280_temperature;BME280_humidity;BME280_pressure;Samples;Min_cycle;Max_cycle;Signal;HPM_P1;HPM_P2
2021/01/01 16:19:26;;;;;;;0.30;0.30;;;;;;;0.05;4.28;2607650.00;5070129;28;20353;-82
2021/01/01 16:21:52;;;;;;;0.88;0.88;;;;;;;0.05;4.28;2841050.25;5069170;28;20047;-82
2021/01/01 16:24:17;;;;;;;7.18;5.60;;;;;;;0.05;4.28;2934414.75;5068621;28;20025;-83
2021/01/01 16:26:47;;;;;;;0.70;0.70;;;;;;;0.05;4.30;3043343.75;5070126;28;20033;-83
2021/01/01 16:29:13;;;;;;;6.32;2.70;;;;;;;0.05;4.30;3136714.25;5070084;28;20501;-83
2021/01/01 16:31:42;;;;;;;4.53;4.22;;;;;;;0.05;4.30;3214525.00;5069601;28;20029;-83
2021/01/01 16:34:19;;;;;;;2.88;2.58;;;;;;;0.05;4.30;3245650.00;5069792;28;20413;-83
2021/01/01 16:36:45;;;;;;;0.93;0.93;;;;;;;0.05;4.29;3276775.00;5068428;28;20055;-82
2021/01/01 16:39:12;;;;;;;0.55;0.55;;;;;;;0.05;4.29;3261212.50;5069894;28;20064;-83
2021/01/01 16:41:40;;;;;;;0.65;0.65;;;;;;;0.05;4.28;3276775.00;5068635;28;20134;-84
2021/01/01 16:44:09;;;;;;;1.30;1.08;;;;;;;0.05;4.27;3261212.50;5068606;28;20389;-83
2021/01/01 16:46:36;;;;;;;2.03;1.50;;;;;;;0.05;4.26;3214525.00;5068711;28;20489;-83
2021/01/01 16:49:01;;;;;;;1.75;1.70;;;;;;;0.05;4.27;3198962.75;5068652;28;20029;-84
2021/01/01 16:51:37;;;;;;;4.38;4.00;;;;;;;0.05;4.27;3183400.50;5069443;28;20036;-83
2021/01/01 16:54:05;;;;;;;5.68;2.50;;;;;;;0.05;4.27;3167838.50;5068593;28;20021;-83
2021/01/01 16:56:31;;;;;;;2.10;2.00;;;;;;;0.05;4.26;3183401.00;5068560;28;20136;-83
2021/01/01 16:58:57;;;;;;;2.55;2.35;;;;;;;0.05;4.25;3183400.50;5068477;28;20039;-83
2021/01/01 17:01:23;;;;;;;2.92;2.80;;;;;;;0.05;4.26;3214525.00;5060442;28;20401;-83
2021/01/01 17:03:48;;;;;;;3.38;3.08;;;;;;;0.05;4.26;3261212.50;5049469;28;20037;-84
2021/01/01 17:06:21;;;;;;;4.68;3.50;;;;;;;0.05;4.27;3339026.25;5048614;28;20025;-84
2021/01/01 17:08:50;;;;;;;0.70;0.70;;;;;;;0.05;4.27;3354589.00;5048116;28;20040;-84
2021/01/01 17:11:18;;;;;;;2.10;1.90;;;;;;;0.05;4.26;3323463.25;5048422;28;20029;-84
2021/01/01 17:13:46;;;;;;;3.13;1.85;;;;;;;0.05;4.25;3261213.00;5049369;28;20413;-83
2021/01/01 17:16:16;;;;;;;3.38;3.17;;;;;;;0.05;4.23;3105591.50;5048080;28;20124;-83
2021/01/01 17:18:41;;;;;;;1.30;1.20;;;;;;;0.05;4.24;3074467.75;5047887;28;20060;-85
2021/01/01 17:21:07;;;;;;;0.82;0.82;;;;;;;0.05;4.24;3090029.50;5047993;28;20030;-84
2021/01/01 17:23:32;;;;;;;2.60;2.40;;;;;;;0.05;4.25;3214525.50;5047778;28;20036;-85
2021/01/01 17:25:58;;;;;;;1.95;1.85;;;;;;;0.05;4.26;3276775.50;5049243;28;20029;-85
2021/01/01 17:28:23;;;;;;;2.63;1.70;;;;;;;0.05;4.26;3323463.25;5048144;28;20087;-84
2021/01/01 17:30:49;;;;;;;2.17;1.38;;;;;;;0.05;4.26;3432405.00;5034452;28;20082;-85
2021/01/01 17:33:14;;;;;;;2.17;1.10;;;;;;;0.05;4.26;3510222.75;5035857;28;20108;-85
2021/01/01 17:35:40;;;;;;;1.83;1.73;;;;;;;0.05;4.25;3603606.50;5034525;28;20119;-85
2021/01/01 17:38:05;;;;;;;7.95;7.28;;;;;;;0.05;4.26;3619170.50;5034148;28;20029;-84
2021/01/01 17:40:30;;;;;;;3.72;3.42;;;;;;;0.05;4.25;3728122.00;5034709;28;20499;-84
2021/01/01 17:42:56;;;;;;;1.38;1.38;;;;;;;0.05;4.25;3852642.25;5035825;28;20089;-85
2021/01/01 17:45:22;;;;;;;0.73;0.73;;;;;;;0.05;4.25;3805946.75;5035287;28;20029;-86
2021/01/01 17:47:47;;;;;;;1.67;1.58;;;;;;;0.05;4.26;4039430.50;5034276;28;20032;-84
2021/01/01 17:50:13;;;;;;;1.45;1.38;;;;;;;0.05;4.27;4163962.50;5034345;28;20029;-84
2021/01/01 17:52:39;;;;;;;0.95;0.95;;;;;;;0.05;4.28;4195096.00;5034094;28;20413;-84
2021/01/01 17:55:06;;;;;;;4.15;1.60;;;;;;;0.05;4.29;4272932.00;5034296;28;20029;-83
2021/01/01 17:57:32;;;;;;;10.30;5.40;;;;;;;0.05;4.30;4366337.00;5035191;28;20079;-83
2021/01/01 17:59:57;;;;;;;3.10;1.73;;;;;;;0.05;4.30;4475312.50;5033869;28;20080;-83
2021/01/01 18:02:23;;;;;;;2.28;2.17;;;;;;;0.05;4.31;4537585.50;5034774;28;20033;-83
2021/01/01 18:04:48;;;;;;;4.95;1.10;;;;;;;0.05;4.31;4584291.50;5035243;28;20036;-82
2021/01/01 18:07:13;;;;;;;0.65;0.65;;;;;;;0.05;4.31;4646567.50;5034140;28;20029;-86
2021/01/01 18:09:39;;;;;;;0.70;0.70;;;;;;;0.05;4.32;4662136.50;5032563;28;20068;-85
2021/01/01 18:12:05;;;;;;;0.20;0.20;;;;;;;0.05;4.31;4693275.00;5032958;28;20110;-84
2021/01/01 18:14:30;;;;;;;0.30;0.30;;;;;;;0.05;4.31;4786691.00;5033968;28;20547;-85
2021/01/01 18:16:55;;;;;;;2.58;2.35;;;;;;;0.05;4.32;4848970.50;5034502;28;20029;-85
2021/01/01 18:19:21;;;;;;;0.50;0.50;;;;;;;0.05;4.32;4989103.50;5033221;28;20083;-84
2021/01/01 18:21:51;;;;;;;0.82;0.82;;;;;;;0.05;4.31;5004674.00;5032497;28;20029;-85
2021/01/01 18:24:16;;;;;;;0.30;0.30;;;;;;;0.05;4.30;4942392.00;5033845;28;20547;-82
2021/01/01 18:26:46;;;;;;;2.47;0.77;;;;;;;0.05;4.30;4786691.50;5034486;28;20029;-85
2021/01/01 18:29:16;;;;;;;0.30;0.30;;;;;;;0.05;4.30;4755552.50;5033580;28;20101;-86
2021/01/01 18:31:50;;;;;;;0.60;0.60;;;;;;;0.05;4.30;4693275.00;5034676;28;20044;-85
2021/01/01 18:34:25;;;;;;;1.25;1.25;;;;;;;0.05;4.30;4677706.00;5033993;28;20045;-85
2021/01/01 18:36:52;;;;;;;0.40;0.40;;;;;;;0.05;4.30;4708844.50;5033531;28;20124;-85
2021/01/01 18:39:18;;;;;;;0.90;0.90;;;;;;;0.05;4.29;4755553.00;5032384;28;20033;-84
2021/01/01 18:41:49;;;;;;;0.90;0.90;;;;;;;0.05;4.29;4724414.00;5032215;28;20500;-85
2021/01/01 18:44:17;;;;;;;0.40;0.40;;;;;;;0.05;4.29;4817831.50;5035024;28;20037;-86
2021/01/01 18:47:16;;;;;;;1.00;1.00;;;;;;;0.05;4.29;4755553.00;5033832;28;20036;-85
2021/01/01 18:49:43;;;;;;;0.50;0.50;;;;;;;0.05;4.29;4724414.00;5021373;28;20045;-85
2021/01/01 18:52:09;;;;;;;1.37;1.37;;;;;;;0.05;4.29;4662137.00;5033153;28;20030;-86
2021/01/01 18:54:36;;;;;;;8.75;2.60;;;;;;;0.05;4.28;4662137.00;5033342;28;20029;-85
2021/01/01 18:57:14;;;;;;;4.50;3.90;;;;;;;0.05;4.28;4662137.00;5033132;28;20033;-85
2021/01/01 18:59:56;;;;;;;3.30;3.10;;;;;;;0.05;4.29;4693275.00;5032949;28;20611;-85
2021/01/01 19:02:24;;;;;;;6.28;3.38;;;;;;;0.05;4.28;4662137.00;5034503;28;20026;-85
2021/01/01 19:05:02;;;;;;;3.25;2.90;;;;;;;0.05;4.28;4662137.00;5032863;28;20051;-84
2021/01/01 19:07:32;;;;;;;4.75;2.30;;;;;;;0.05;4.28;4739983.50;5032826;28;20026;-85
2021/01/01 19:10:04;;;;;;;0.77;0.77;;;;;;;0.05;4.27;4755553.00;5033623;28;20033;-85
2021/01/01 19:12:30;;;;;;;0.43;0.43;;;;;;;0.05;4.28;4755553.00;5032734;28;20124;-84
2021/01/01 19:14:58;;;;;;;2.78;1.05;;;;;;;0.05;4.28;4786692.00;5033199;28;20124;-84
2021/01/01 19:17:30;;;;;;;0.55;0.43;;;;;;;0.05;4.27;4802262.00;5032151;28;20179;-84
2021/01/01 19:19:59;;;;;;;1.15;1.15;;;;;;;0.05;4.27;4739983.50;5032675;28;20029;-84
2021/01/01 19:22:30;;;;;;;;;;;;;;;0.05;4.27;4739983.50;5033994;28;20064;-84
2021/01/01 19:24:57;;;;;;;6.32;1.52;;;;;;;0.05;4.27;4693275.00;5033958;28;19952;-85
2021/01/01 19:27:43;;;;;;;0.45;0.45;;;;;;;0.05;4.27;4677706.00;5032442;28;20508;-84
2021/01/01 19:30:19;;;;;;;5.57;1.00;;;;;;;0.05;4.27;4646567.50;5032523;28;20037;-84
2021/01/01 19:33:23;;;;;;;0.43;0.43;;;;;;;0.05;4.27;4677706.00;5033849;28;20029;-84
2021/01/01 19:35:54;;;;;;;3.60;1.23;;;;;;;0.05;4.28;4739983.50;5032149;28;20033;-84
2021/01/01 19:38:29;;;;;;;1.15;1.15;;;;;;;0.05;4.27;4724414.00;5033332;28;20021;-83
2021/01/01 19:41:40;;;;;;;0.50;0.50;;;;;;;0.05;4.27;4755553.00;5032570;28;20034;-84
2021/01/01 19:44:14;;;;;;;2.30;1.10;;;;;;;0.05;4.27;4755553.00;5032884;28;20021;-84
2021/01/01 19:47:14;;;;;;;1.50;1.40;;;;;;;0.05;4.27;4895681.50;5033582;28;20061;-84
2021/01/01 19:50:12;;;;;;;0.40;0.40;;;;;;;0.05;4.27;4942392.50;5032983;28;20036;-84
2021/01/01 19:52:46;;;;;;;0.80;0.80;;;;;;;0.05;4.27;4957963.00;5033356;28;20134;-84
2021/01/01 19:55:54;;;;;;;0.50;0.50;;;;;;;0.05;4.27;4973533.50;5033434;28;20089;-82
2021/01/01 19:58:38;;;;;;;;;;;;;;;0.05;4.28;5082529.50;5031722;28;20052;-82
2021/01/01 20:01:21;;;;;;;0.40;0.40;;;;;;;0.05;4.28;5113671.00;5065343;28;19913;-83
2021/01/01 20:03:55;;;;;;;0.50;0.50;;;;;;;0.05;4.28;5238243.00;5032072;28;20025;-84
2021/01/01 20:06:23;;;;;;;0.52;0.52;;;;;;;0.05;4.28;5284958.50;5032469;28;20029;-83
2021/01/01 20:08:57;;;;;;;0.75;0.75;;;;;;;0.05;4.28;5300531.00;5032047;28;20025;-83
2021/01/01 20:11:27;;;;;;;1.90;1.10;;;;;;;0.05;4.28;5316103.00;5032661;28;20091;-83
2021/01/01 20:13:55;;;;;;;0.22;0.22;;;;;;;0.05;4.28;5331675.00;5032287;28;20033;-84
2021/01/01 20:16:21;;;;;;;1.20;1.20;;;;;;;0.05;4.28;5284959.00;5031966;28;20030;-84
2021/01/01 20:18:53;;;;;;;0.35;0.35;;;;;;;0.05;4.28;5316103.00;5032758;28;20053;-84
2021/01/01 20:21:19;;;;;;;0.93;0.93;;;;;;;0.05;4.27;5284959.00;5031956;28;20029;-83
2021/01/01 20:23:49;;;;;;;1.45;1.45;;;;;;;0.05;4.27;5331675.50;5031823;28;20128;-83
2021/01/01 20:26:16;;;;;;;0.65;0.65;;;;;;;0.05;4.27;5331675.50;5031680;28;20060;-83
2021/01/01 20:28:42;;;;;;;1.20;1.10;;;;;;;0.05;4.27;5378392.50;5031859;28;20029;-83
2021/01/01 20:31:10;;;;;;;0.52;0.52;;;;;;;0.05;4.27;5409537.00;5032731;28;20033;-83
2021/01/01 20:33:46;;;;;;;;;;;;;;;0.05;4.27;5425110.00;5032179;28;20029;-83
2021/01/01 20:36:21;;;;;;;0.30;0.30;;;;;;;0.05;4.27;5440683.00;5031881;28;19916;-83
2021/01/01 20:39:28;;;;;;;1.75;1.65;;;;;;;0.05;4.27;5440683.00;5065095;28;20095;-83
2021/01/01 20:42:30;;;;;;;0.30;0.30;;;;;;;0.05;4.27;5456255.50;5022238;28;20038;-83
2021/01/01 20:45:25;;;;;;;0.52;0.52;;;;;;;0.05;4.28;5502974.50;5031622;28;20028;-83
2021/01/01 20:58:20;;;;;;;0.40;0.40;;;;;;;0.05;4.29;5861173.00;5032427;28;20037;-83
2021/01/01 21:00:47;;;;;;;0.77;0.77;;;;;;;0.05;4.29;5830024.00;5032768;28;20393;-83
2021/01/01 21:03:14;;;;;;;0.95;0.77;;;;;;;0.05;4.30;6032499.00;5031511;28;20030;-83
2021/01/01 21:05:40;;;;;;;1.08;0.57;;;;;;;0.05;4.30;6157105.50;5034945;28;20064;-82
2021/01/01 21:08:29;;;;;;;0.30;0.30;;;;;;;0.05;4.30;6281716.50;5035220;28;20099;-84
2021/01/01 21:11:23;;;;;;;0.40;0.40;;;;;;;0.05;4.30;6764627.50;5068745;28;20029;-83
2021/01/01 21:14:09;;;;;;;0.63;0.63;;;;;;;0.05;4.32;7107381.00;5050998;28;20041;-83
2021/01/01 21:16:44;;;;;;;0.43;0.43;;;;;;;0.05;4.35;7107381.00;5042599;28;20033;-84
2021/01/01 21:19:29;;;;;;;0.65;0.65;;;;;;;0.05;4.34;7278771.00;5035817;28;20158;-83
2021/01/01 21:22:01;;;;;;;0.50;0.50;;;;;;;0.05;4.35;7496917.00;5035230;28;20120;-84
2021/01/01 21:24:38;;;;;;;0.35;0.35;;;;;;;0.05;4.36;7559247.00;5036335;28;20044;-85
2021/01/01 21:27:40;;;;;;;0.20;0.20;;;;;;;0.05;4.37;7434588.00;5036143;28;20439;-85
2021/01/01 21:30:31;;;;;;;1.20;0.60;;;;;;;0.05;4.36;7419006.00;5036420;28;20029;-86
2021/01/01 21:33:15;;;;;;;6.43;1.55;;;;;;;0.05;4.36;7496917.00;5035237;28;20039;-85
2021/01/01 21:35:50;;;;;;;0.45;0.45;;;;;;;0.05;4.37;7668327.00;5034626;28;20503;-85
2021/01/01 21:38:49;;;;;;;1.20;1.13;;;;;;;0.05;4.37;7668327.00;5034762;28;20037;-84
2021/01/01 21:41:42;;;;;;;2.15;1.15;;;;;;;0.05;4.37;7637161.00;5035700;28;20083;-85
2021/01/01 21:44:23;;;;;;;1.20;1.20;;;;;;;0.05;4.37;7683910.00;5034673;28;20079;-85
2021/01/01 21:47:04;;;;;;;1.70;0.90;;;;;;;0.05;4.37;7668327.00;5035879;28;20105;-88
2021/01/01 21:50:07;;;;;;;0.73;0.73;;;;;;;0.05;4.37;7605995.00;5034487;28;20099;-85
2021/01/01 21:52:34;;;;;;;1.15;1.15;;;;;;;0.05;4.36;7590412.50;5013658;28;20129;-85
2021/01/01 21:55:00;;;;;;;0.20;0.20;;;;;;;0.05;4.36;7792994.50;4997379;28;20041;-84
2021/01/01 21:57:26;;;;;;;1.05;1.05;;;;;;;0.05;4.37;8011173.50;5012464;28;20570;-86
2021/01/01 21:59:53;;;;;;;0.30;0.30;;;;;;;0.05;4.38;8026758.00;5035393;28;20389;-86
2021/01/01 22:02:20;;;;;;;1.05;1.05;;;;;;;0.05;4.38;8120268.50;5035340;28;20108;-85
2021/01/01 22:04:50;;;;;;;0.83;0.83;;;;;;;0.05;4.38;8104683.00;5035287;28;20164;-82
2021/01/01 22:07:16;;;;;;;1.55;1.45;;;;;;;0.05;4.39;8011173.50;5033693;28;20120;-83
2021/01/01 22:09:44;;;;;;;0.32;0.32;;;;;;;0.05;4.39;7948835.00;5033975;28;20071;-84
2021/01/01 22:12:10;;;;;;;;;;;;;;;0.05;4.39;7824162.00;5033133;28;20065;-84
2021/01/01 22:14:37;;;;;;;0.63;0.63;;;;;;;0.05;4.38;7761827.50;5034659;28;19916;-85
2021/01/01 22:17:02;;;;;;;0.28;0.28;;;;;;;0.05;4.38;7792995.00;5034022;28;20030;-84
2021/01/01 22:19:28;;;;;;;0.68;0.68;;;;;;;0.05;4.37;7824162.00;5034364;28;20025;-84
2021/01/01 22:21:54;;;;;;;0.30;0.30;;;;;;;0.05;4.37;7917666.00;5033619;28;20417;-84
2021/01/01 22:24:20;;;;;;;0.22;0.22;;;;;;;0.05;4.38;8135853.50;5034766;28;20497;-85
2021/01/01 22:26:49;;;;;;;0.30;0.30;;;;;;;0.05;4.38;8229366.50;5033580;28;20030;-83
2021/01/01 22:29:14;;;;;;;0.77;0.77;;;;;;;0.05;4.38;8167024.50;5034911;28;20036;-88
2021/01/01 22:31:41;;;;;;;0.30;0.30;;;;;;;0.05;4.38;8182610.00;5034740;28;20033;-81
2021/01/01 22:34:06;;;;;;;0.85;0.85;;;;;;;0.05;4.38;8182610.00;5034186;28;20026;-81
2021/01/01 22:36:32;;;;;;;11.50;2.53;;;;;;;0.05;4.38;8213781.50;5033686;28;20056;-81
2021/01/01 22:38:57;;;;;;;0.30;0.30;;;;;;;0.05;4.38;8260538.50;5034295;28;20032;-81
2021/01/01 22:41:22;;;;;;;0.30;0.30;;;;;;;0.05;4.39;8385228.50;5033575;28;20029;-81
2021/01/01 22:43:48;;;;;;;0.40;0.40;;;;;;;0.05;4.39;8385228.50;5036563;28;20387;-81
2021/01/01 22:46:13;;;;;;;0.35;0.35;;;;;;;0.05;4.39;-8376401.50;5034523;28;20034;-81
2021/01/01 22:48:39;;;;;;;0.40;0.40;;;;;;;0.05;4.39;-8376401.50;5033764;28;20036;-81
2021/01/01 22:51:05;;;;;;;0.30;0.30;;;;;;;0.05;4.39;-8142594.50;5033293;28;20029;-81
2021/01/01 22:53:30;;;;;;;1.17;1.13;;;;;;;0.05;4.40;-8095831.50;5033686;28;20107;-81
2021/01/01 22:55:55;;;;;;;0.75;0.75;;;;;;;0.05;4.41;-8111419.00;5034385;28;20060;-81
2021/01/01 22:58:29;;;;;;;0.50;0.50;;;;;;;0.05;4.41;-8064655.50;5034310;28;20377;-81
2021/01/01 23:01:02;;;;;;;0.25;0.25;;;;;;;0.05;4.41;-7955538.00;5034484;28;20064;-81
2021/01/01 23:03:29;;;;;;;0.20;0.20;;;;;;;0.05;4.41;-7862006.00;5034409;28;20025;-81
2021/01/01 23:05:57;;;;;;;0.40;0.40;;;;;;;0.05;4.40;-7784059.50;5032914;28;20025;-81
2021/01/01 23:08:23;;;;;;;;;;;;;;;0.05;4.41;-7628163.00;5033309;28;20440;-81
2021/01/01 23:10:48;;;;;;;0.52;0.52;;;;;;;0.05;4.43;-7659343.00;5034015;28;19962;-81
2021/01/01 23:13:15;;;;;;;0.30;0.30;;;;;;;0.05;4.44;-7752881.00;5032809;28;20036;-81
2021/01/01 23:15:43;;;;;;;1.83;1.20;;;;;;;0.05;4.44;-7815238.00;5034082;28;20029;-81
2021/01/01 23:18:20;;;;;;;3.83;2.75;;;;;;;0.05;4.43;-7971126.00;5033921;28;20058;-80
2021/01/01 23:20:48;;;;;;;2.30;1.05;;;;;;;0.05;4.43;-8049067.50;5033960;28;20033;-81
2021/01/01 23:23:18;;;;;;;0.52;0.40;;;;;;;0.05;4.42;-8127007.00;5032525;28;20033;-81
2021/01/01 23:26:00;;;;;;;2.30;2.15;;;;;;;0.05;4.42;-8173770.00;5033272;28;20034;-81
2021/01/01 23:29:04;;;;;;;0.40;0.40;;;;;;;0.05;4.42;-8204945.00;5032188;28;20030;-81
2021/01/01 23:31:54;;;;;;;0.82;0.82;;;;;;;0.05;4.41;-8314054.00;5031923;28;20044;-81
2021/01/01 23:35:01;;;;;;;0.57;0.57;;;;;;;0.05;4.40;-8376401.00;5032830;28;20034;-81
2021/01/01 23:37:54;;;;;;;0.38;0.38;;;;;;;0.05;4.40;-8345228.00;5012298;28;20030;-81
2021/01/01 23:40:49;;;;;;;1.20;1.20;;;;;;;0.05;4.40;-8329641.00;5031445;28;20461;-80
2021/01/01 23:43:24;;;;;;;1.17;1.15;;;;;;;0.05;4.40;-8329641.00;5032219;28;20032;-81
2021/01/01 23:45:59;;;;;;;0.30;0.30;;;;;;;0.05;4.39;8322883.00;5032513;28;20029;-81
2021/01/01 23:48:28;;;;;;;0.65;0.65;;;;;;;0.05;4.38;8322883.50;5032484;28;20025;-81
2021/01/01 23:50:56;;;;;;;0.38;0.38;;;;;;;0.05;4.38;8198196.00;5032413;28;20044;-81
2021/01/01 23:53:26;;;;;;;0.90;0.70;;;;;;;0.05;4.37;8120269.50;5032565;28;20095;-81
2021/01/01 23:55:53;;;;;;;0.30;0.30;;;;;;;0.05;4.36;7995589.50;5032421;28;20037;-81
2021/01/01 23:58:20;;;;;;;4.20;1.67;;;;;;;0.05;4.35;7995589.50;5032274;28;20496;-81
